Climatologie pour Saint-Brevin les Pins
Jour • Résumé pour mai 16, 2017 Système :  Métrique    Anglais   Mixte
« - 1 jour
+ 1 jour »
Jour Semaine Mois Année Personnalisé
  Maximum : Minimum : Moyenne :
Température sous abri : 27.9 °C 13.0 °C 19.9 °C
Point de rosée : 17.7 °C 12.5 °C 14.8 °C
Humidité : 98 % 47 % 75 %
Vitesse du vent : 12.9 km/h 0.0 km/h 2.1 km/h
Rafale : 14.5 km/h - -
Direction :- - SW
Pression : 1026.3 hPa 1022.2 hPa -
Précipitations : 0.0 mm    
Historical Graphs
 
 
Tableau de données pour mai 16, 2017
Heure Tempé Pt rosée Pression Vent Vitesse Rafale Humidité Taux pluie (/hr) Soleil
00:00 14.6 °C 13.8 °C 1026.3 hPa Calm     95 % 0.0 mm 0 W/m2
00:05 14.4 °C 13.7 °C 1026.3 hPa Calm     95 % 0.0 mm 0 W/m2
00:10 14.3 °C 13.5 °C 1026.3 hPa Calm   1.6 km/h 95 % 0.0 mm 0 W/m2
00:15 14.3 °C 13.5 °C 1026.3 hPa Calm   1.6 km/h 95 % 0.0 mm 0 W/m2
00:20 14.4 °C 13.6 °C 1026.3 hPa Calm     95 % 0.0 mm 0 W/m2
00:25 14.4 °C 13.7 °C 1026.3 hPa Calm     95 % 0.0 mm 0 W/m2
00:30 14.4 °C 13.7 °C 1026.3 hPa Calm     95 % 0.0 mm 0 W/m2
00:35 14.4 °C 13.7 °C 1026.0 hPa Calm     95 % 0.0 mm 0 W/m2
00:40 14.6 °C 13.8 °C 1026.0 hPa Calm   1.6 km/h 95 % 0.0 mm 0 W/m2
00:45 14.8 °C 14.0 °C 1026.0 hPa Calm   1.6 km/h 95 % 0.0 mm 0 W/m2
00:50 14.6 °C 13.8 °C 1026.0 hPa Calm   1.6 km/h 95 % 0.0 mm 0 W/m2
00:55 14.5 °C 13.7 °C 1026.3 hPa Calm     95 % 0.0 mm 0 W/m2
01:00 14.4 °C 13.7 °C 1026.3 hPa Calm     95 % 0.0 mm 0 W/m2
01:05 14.4 °C 13.7 °C 1026.3 hPa Calm   1.6 km/h 95 % 0.0 mm 0 W/m2
01:10 14.3 °C 13.5 °C 1026.3 hPa Calm   1.6 km/h 95 % 0.0 mm 0 W/m2
01:15 14.6 °C 13.9 °C 1026.0 hPa Calm   1.6 km/h 96 % 0.0 mm 0 W/m2
01:25 14.7 °C 14.1 °C 1026.3 hPa Calm   1.6 km/h 96 % 0.0 mm 0 W/m2
01:30 14.6 °C 13.8 °C 1026.3 hPa Calm     95 % 0.0 mm 0 W/m2
01:35 14.5 °C 13.7 °C 1026.3 hPa WNW 4.8 km/h 6.4 km/h 95 % 0.0 mm 0 W/m2
01:40 14.4 °C 13.7 °C 1026.0 hPa Calm   6.4 km/h 95 % 0.0 mm 0 W/m2
01:45 14.4 °C 13.8 °C 1026.3 hPa Calm   4.8 km/h 96 % 0.0 mm 0 W/m2
01:50 14.5 °C 13.9 °C 1026.0 hPa Calm   4.8 km/h 96 % 0.0 mm 0 W/m2
01:55 14.6 °C 14.0 °C 1026.0 hPa Calm   4.8 km/h 96 % 0.0 mm 0 W/m2
02:00 14.8 °C 14.1 °C 1026.0 hPa Calm   3.2 km/h 96 % 0.0 mm 0 W/m2
02:10 14.8 °C 14.2 °C 1026.0 hPa Calm   1.6 km/h 96 % 0.0 mm 0 W/m2
02:15 14.7 °C 13.9 °C 1025.6 hPa Calm     95 % 0.0 mm 0 W/m2
02:20 14.6 °C 13.8 °C 1026.0 hPa Calm     95 % 0.0 mm 0 W/m2
02:25 14.5 °C 13.9 °C 1025.6 hPa Calm     96 % 0.0 mm 0 W/m2
02:30 14.5 °C 13.9 °C 1025.6 hPa Calm     96 % 0.0 mm 0 W/m2
02:35 14.7 °C 14.0 °C 1025.6 hPa Calm     96 % 0.0 mm 0 W/m2
02:40 14.6 °C 14.0 °C 1025.6 hPa Calm     96 % 0.0 mm 0 W/m2
02:45 14.5 °C 13.9 °C 1025.6 hPa Calm     96 % 0.0 mm 0 W/m2
02:55 14.4 °C 13.8 °C 1025.6 hPa Calm   4.8 km/h 96 % 0.0 mm 0 W/m2
03:00 14.4 °C 13.8 °C 1025.6 hPa Calm   4.8 km/h 96 % 0.0 mm 0 W/m2
03:05 14.4 °C 13.8 °C 1025.6 hPa Calm     96 % 0.0 mm 0 W/m2
03:10 14.4 °C 13.8 °C 1025.6 hPa Calm     96 % 0.0 mm 0 W/m2
03:15 14.4 °C 13.8 °C 1025.6 hPa WNW 1.6 km/h 1.6 km/h 96 % 0.0 mm 0 W/m2
03:20 14.4 °C 13.8 °C 1025.6 hPa Calm   3.2 km/h 96 % 0.0 mm 0 W/m2
03:25 14.3 °C 13.7 °C 1025.6 hPa Calm   3.2 km/h 96 % 0.0 mm 0 W/m2
03:30 14.3 °C 13.6 °C 1025.6 hPa Calm   1.6 km/h 96 % 0.0 mm 0 W/m2
03:35 14.3 °C 13.7 °C 1025.6 hPa Calm   1.6 km/h 96 % 0.0 mm 0 W/m2
03:40 14.4 °C 13.8 °C 1025.6 hPa Calm     96 % 0.0 mm 0 W/m2
03:45 14.3 °C 13.7 °C 1025.6 hPa Calm     96 % 0.0 mm 0 W/m2
03:50 14.3 °C 13.9 °C 1025.6 hPa Calm     97 % 0.0 mm 0 W/m2
03:55 14.4 °C 13.8 °C 1025.6 hPa Calm     96 % 0.0 mm 0 W/m2
04:00 14.4 °C 13.8 °C 1025.6 hPa Calm     96 % 0.0 mm 0 W/m2
04:05 14.3 °C 13.7 °C 1025.6 hPa Calm     96 % 0.0 mm 0 W/m2
04:10 14.3 °C 13.7 °C 1025.6 hPa Calm     96 % 0.0 mm 0 W/m2
04:15 14.3 °C 13.6 °C 1025.6 hPa Calm     96 % 0.0 mm 0 W/m2
04:20 14.2 °C 13.5 °C 1025.6 hPa Calm     96 % 0.0 mm 0 W/m2
04:25 14.0 °C 13.4 °C 1025.6 hPa Calm     96 % 0.0 mm 0 W/m2
04:30 13.8 °C 13.2 °C 1025.6 hPa Calm   3.2 km/h 96 % 0.0 mm 0 W/m2
04:35 13.7 °C 13.0 °C 1025.6 hPa Calm   3.2 km/h 96 % 0.0 mm 0 W/m2
04:40 13.6 °C 12.9 °C 1025.6 hPa Calm     96 % 0.0 mm 0 W/m2
04:45 13.6 °C 13.1 °C 1025.6 hPa Calm     97 % 0.0 mm 0 W/m2
04:50 13.6 °C 13.1 °C 1025.6 hPa WNW 1.6 km/h 1.6 km/h 97 % 0.0 mm 0 W/m2
04:55 13.5 °C 13.0 °C 1025.6 hPa Calm   1.6 km/h 97 % 0.0 mm 0 W/m2
05:00 13.5 °C 13.0 °C 1025.6 hPa Calm   1.6 km/h 97 % 0.0 mm 0 W/m2
05:10 13.5 °C 13.0 °C 1025.6 hPa Calm     97 % 0.0 mm 0 W/m2
05:15 13.4 °C 12.9 °C 1025.6 hPa Calm     97 % 0.0 mm 0 W/m2
05:20 13.6 °C 13.1 °C 1025.6 hPa Calm     97 % 0.0 mm 0 W/m2
05:25 13.4 °C 13.0 °C 1025.6 hPa Calm     97 % 0.0 mm 0 W/m2
05:30 13.4 °C 12.9 °C 1025.6 hPa Calm     97 % 0.0 mm 0 W/m2
05:35 13.3 °C 12.9 °C 1025.6 hPa Calm     97 % 0.0 mm 0 W/m2
05:40 13.2 °C 12.8 °C 1025.6 hPa Calm     97 % 0.0 mm 0 W/m2
05:45 13.1 °C 12.6 °C 1025.6 hPa Calm     97 % 0.0 mm 0 W/m2
05:50 13.0 °C 12.5 °C 1025.6 hPa Calm     97 % 0.0 mm 0 W/m2
05:55 13.1 °C 12.6 °C 1025.3 hPa Calm     97 % 0.0 mm 0 W/m2
06:00 13.2 °C 12.7 °C 1025.3 hPa Calm     97 % 0.0 mm 0 W/m2
06:05 13.2 °C 12.7 °C 1025.3 hPa Calm     97 % 0.0 mm 0 W/m2
06:10 13.3 °C 13.0 °C 1025.3 hPa Calm     98 % 0.0 mm 0 W/m2
06:15 13.4 °C 13.0 °C 1025.3 hPa Calm   1.6 km/h 97 % 0.0 mm 0 W/m2
06:20 13.5 °C 13.0 °C 1025.3 hPa Calm   4.8 km/h 97 % 0.0 mm 0 W/m2
06:25 13.4 °C 12.9 °C 1025.3 hPa Calm   4.8 km/h 97 % 0.0 mm 0 W/m2
06:30 13.4 °C 13.0 °C 1025.3 hPa Calm     97 % 0.0 mm 0 W/m2
06:35 13.4 °C 13.0 °C 1025.6 hPa Calm     97 % 0.0 mm 0 W/m2
06:40 13.4 °C 13.0 °C 1025.6 hPa Calm     97 % 0.0 mm 0 W/m2
06:45 13.4 °C 13.0 °C 1025.6 hPa Calm     97 % 0.0 mm 0 W/m2
06:50 13.6 °C 13.1 °C 1025.6 hPa Calm     97 % 0.0 mm 5 W/m2
06:55 13.5 °C 13.0 °C 1025.6 hPa Calm     97 % 0.0 mm 7 W/m2
07:00 13.7 °C 13.2 °C 1025.6 hPa Calm     97 % 0.0 mm 12 W/m2
07:05 13.6 °C 13.1 °C 1025.6 hPa Calm     97 % 0.0 mm 18 W/m2
07:10 13.7 °C 13.2 °C 1025.6 hPa Calm     97 % 0.0 mm 23 W/m2
07:15 13.7 °C 13.3 °C 1025.6 hPa Calm     97 % 0.0 mm 26 W/m2
07:20 13.9 °C 13.6 °C 1025.6 hPa Calm     98 % 0.0 mm 30 W/m2
07:25 14.1 °C 13.8 °C 1025.6 hPa Calm   3.2 km/h 98 % 0.0 mm 33 W/m2
07:30 14.2 °C 13.8 °C 1025.6 hPa Calm   3.2 km/h 97 % 0.0 mm 39 W/m2
07:35 14.3 °C 13.8 °C 1025.6 hPa Calm   1.6 km/h 97 % 0.0 mm 47 W/m2
07:40 14.3 °C 13.9 °C 1025.6 hPa Calm   1.6 km/h 97 % 0.0 mm 58 W/m2
07:45 14.4 °C 13.9 °C 1025.6 hPa Calm     97 % 0.0 mm 65 W/m2
07:50 14.6 °C 14.1 °C 1025.6 hPa Calm     97 % 0.0 mm 83 W/m2
07:55 14.7 °C 14.2 °C 1025.6 hPa Calm     97 % 0.0 mm 83 W/m2
08:00 14.9 °C 14.5 °C 1025.6 hPa Calm   1.6 km/h 97 % 0.0 mm 81 W/m2
08:05 15.1 °C 14.6 °C 1025.6 hPa Calm   1.6 km/h 97 % 0.0 mm 79 W/m2
08:10 15.3 °C 14.9 °C 1025.6 hPa Calm     97 % 0.0 mm 104 W/m2
08:15 15.6 °C 15.0 °C 1025.6 hPa Calm   1.6 km/h 96 % 0.0 mm 125 W/m2
08:25 16.2 °C 15.4 °C 1025.6 hPa Calm   1.6 km/h 95 % 0.0 mm 134 W/m2
08:30 16.4 °C 15.6 °C 1025.6 hPa Calm   3.2 km/h 95 % 0.0 mm 137 W/m2
08:35 16.7 °C 15.7 °C 1025.6 hPa Calm   3.2 km/h 94 % 0.0 mm 144 W/m2
08:40 16.8 °C 15.7 °C 1025.6 hPa Calm   1.6 km/h 93 % 0.0 mm 137 W/m2
08:45 16.9 °C 15.7 °C 1025.6 hPa Calm   3.2 km/h 93 % 0.0 mm 118 W/m2
08:50 17.0 °C 15.7 °C 1025.6 hPa Calm   3.2 km/h 92 % 0.0 mm 120 W/m2
08:55 17.1 °C 15.6 °C 1025.6 hPa North 1.6 km/h 3.2 km/h 91 % 0.0 mm 148 W/m2
09:00 17.3 °C 15.8 °C 1025.6 hPa Calm   3.2 km/h 91 % 0.0 mm 195 W/m2
09:05 17.6 °C 16.1 °C 1025.6 hPa North 1.6 km/h 3.2 km/h 91 % 0.0 mm 223 W/m2
09:10 17.9 °C 16.2 °C 1025.6 hPa Calm   3.2 km/h 90 % 0.0 mm 246 W/m2
09:15 18.2 °C 16.1 °C 1025.6 hPa Calm   3.2 km/h 88 % 0.0 mm 299 W/m2
09:20 18.5 °C 16.3 °C 1025.6 hPa North 3.2 km/h 3.2 km/h 87 % 0.0 mm 248 W/m2
09:25 18.6 °C 16.2 °C 1025.6 hPa Calm   4.8 km/h 86 % 0.0 mm 443 W/m2
09:30 18.9 °C 16.3 °C 1025.6 hPa North 1.6 km/h 4.8 km/h 85 % 0.0 mm 334 W/m2
09:35 19.1 °C 16.3 °C 1025.6 hPa Calm   4.8 km/h 84 % 0.0 mm 281 W/m2
09:40 19.1 °C 16.1 °C 1025.6 hPa North 1.6 km/h 6.4 km/h 83 % 0.0 mm 297 W/m2
09:45 19.2 °C 16.3 °C 1025.6 hPa Calm   6.4 km/h 83 % 0.0 mm 292 W/m2
09:50 19.4 °C 16.2 °C 1025.6 hPa NE 3.2 km/h 6.4 km/h 82 % 0.0 mm 302 W/m2
09:55 19.6 °C 16.3 °C 1025.6 hPa Calm   6.4 km/h 81 % 0.0 mm 320 W/m2
10:00 19.8 °C 16.5 °C 1025.6 hPa NE 1.6 km/h 6.4 km/h 81 % 0.0 mm 339 W/m2
10:05 20.0 °C 16.0 °C 1025.6 hPa NE 3.2 km/h 4.8 km/h 78 % 0.0 mm 292 W/m2
10:10 20.2 °C 16.6 °C 1025.6 hPa Calm   4.8 km/h 80 % 0.0 mm 281 W/m2
10:15 20.2 °C 16.5 °C 1025.6 hPa Calm   4.8 km/h 79 % 0.0 mm 318 W/m2
10:20 20.3 °C 16.5 °C 1025.6 hPa North 1.6 km/h 6.4 km/h 79 % 0.0 mm 360 W/m2
10:25 20.6 °C 16.2 °C 1025.6 hPa ENE 3.2 km/h 6.4 km/h 76 % 0.0 mm 441 W/m2
10:35 20.9 °C 15.9 °C 1025.6 hPa ENE 6.4 km/h 9.7 km/h 73 % 0.0 mm 373 W/m2
10:40 21.2 °C 16.8 °C 1025.6 hPa ENE 1.6 km/h 9.7 km/h 76 % 0.0 mm 508 W/m2
10:45 21.7 °C 17.1 °C 1025.3 hPa NE 3.2 km/h 6.4 km/h 75 % 0.0 mm 751 W/m2
10:50 22.0 °C 16.0 °C 1025.3 hPa Calm   8.0 km/h 69 % 0.0 mm 473 W/m2
10:55 22.4 °C 16.5 °C 1025.3 hPa ENE 6.4 km/h 8.0 km/h 69 % 0.0 mm 666 W/m2
11:00 22.7 °C 16.0 °C 1025.3 hPa East 9.7 km/h 9.7 km/h 66 % 0.0 mm 833 W/m2
11:05 23.0 °C 16.3 °C 1025.3 hPa East 3.2 km/h 11.3 km/h 66 % 0.0 mm 763 W/m2
11:10 22.7 °C 16.2 °C 1025.3 hPa Calm   12.9 km/h 67 % 0.0 mm 403 W/m2
11:15 23.0 °C 16.1 °C 1024.9 hPa NE 3.2 km/h 12.9 km/h 65 % 0.0 mm 666 W/m2
11:20 23.4 °C 17.0 °C 1024.9 hPa East 4.8 km/h 11.3 km/h 67 % 0.0 mm 810 W/m2
11:25 24.0 °C 16.0 °C 1024.9 hPa ESE 3.2 km/h 12.9 km/h 61 % 0.0 mm 886 W/m2
11:30 23.8 °C 15.3 °C 1024.9 hPa Calm   12.9 km/h 59 % 0.0 mm 691 W/m2
11:35 24.1 °C 16.4 °C 1024.9 hPa East 3.2 km/h 9.7 km/h 62 % 0.0 mm 940 W/m2
11:40 23.8 °C 15.5 °C 1024.9 hPa East 4.8 km/h 9.7 km/h 60 % 0.0 mm 469 W/m2
11:45 23.9 °C 15.4 °C 1024.9 hPa East 1.6 km/h 9.7 km/h 59 % 0.0 mm 482 W/m2
11:50 23.7 °C 14.4 °C 1024.9 hPa ESE 4.8 km/h 8.0 km/h 56 % 0.0 mm 450 W/m2
11:55 23.7 °C 15.8 °C 1024.9 hPa Calm   8.0 km/h 61 % 0.0 mm 483 W/m2
12:00 24.2 °C 15.6 °C 1024.9 hPa Calm   8.0 km/h 59 % 0.0 mm 531 W/m2
12:05 24.5 °C 15.1 °C 1024.9 hPa SE 3.2 km/h 8.0 km/h 56 % 0.0 mm 629 W/m2
12:10 24.3 °C 16.3 °C 1024.9 hPa SE 3.2 km/h 8.0 km/h 61 % 0.0 mm 689 W/m2
12:15 24.7 °C 16.4 °C 1024.9 hPa ESE 1.6 km/h 9.7 km/h 60 % 0.0 mm 615 W/m2
12:20 24.7 °C 15.3 °C 1024.9 hPa Calm   11.3 km/h 56 % 0.0 mm 650 W/m2
12:25 24.9 °C 16.4 °C 1024.9 hPa East 1.6 km/h 11.3 km/h 59 % 0.0 mm 707 W/m2
12:30 24.9 °C 16.9 °C 1024.9 hPa NE 1.6 km/h 8.0 km/h 61 % 0.0 mm 622 W/m2
12:35 25.0 °C 15.6 °C 1024.9 hPa South 3.2 km/h 8.0 km/h 56 % 0.0 mm 598 W/m2
12:40 25.1 °C 16.2 °C 1024.6 hPa Calm   8.0 km/h 58 % 0.0 mm 624 W/m2
12:45 25.1 °C 14.8 °C 1024.6 hPa NE 4.8 km/h 8.0 km/h 53 % 0.0 mm 543 W/m2
12:50 24.8 °C 16.3 °C 1024.6 hPa ESE 11.3 km/h 11.3 km/h 59 % 0.0 mm 659 W/m2
12:55 25.2 °C 15.5 °C 1024.6 hPa SE 3.2 km/h 11.3 km/h 55 % 0.0 mm 684 W/m2
13:00 25.4 °C 15.7 °C 1024.6 hPa Calm   11.3 km/h 55 % 0.0 mm 877 W/m2
13:05 25.7 °C 16.2 °C 1024.6 hPa ESE 3.2 km/h 9.7 km/h 56 % 0.0 mm 997 W/m2
13:10 26.5 °C 17.0 °C 1024.6 hPa ESE 6.4 km/h 9.7 km/h 56 % 0.0 mm 947 W/m2
13:15 26.3 °C 15.9 °C 1024.6 hPa East 3.2 km/h 11.3 km/h 53 % 0.0 mm 680 W/m2
13:20 26.1 °C 16.4 °C 1024.6 hPa SSW 6.4 km/h 11.3 km/h 55 % 0.0 mm 898 W/m2
13:25 25.8 °C 14.9 °C 1024.6 hPa Calm   8.0 km/h 51 % 0.0 mm 492 W/m2
13:30 25.7 °C 15.4 °C 1024.6 hPa SSE 8.0 km/h 8.0 km/h 53 % 0.0 mm 550 W/m2
13:35 26.1 °C 15.4 °C 1024.6 hPa ESE 3.2 km/h 11.3 km/h 52 % 0.0 mm 517 W/m2
13:40 26.1 °C 15.5 °C 1024.3 hPa SSE 1.6 km/h 11.3 km/h 52 % 0.0 mm 536 W/m2
13:45 25.9 °C 16.2 °C 1024.3 hPa Calm   9.7 km/h 55 % 0.0 mm 615 W/m2
13:50 26.2 °C 17.5 °C 1024.3 hPa West 4.8 km/h 6.4 km/h 59 % 0.0 mm 656 W/m2
13:55 26.7 °C 16.6 °C 1024.3 hPa Calm   6.4 km/h 54 % 0.0 mm 795 W/m2
14:00 26.8 °C 16.4 °C 1024.3 hPa WNW 4.8 km/h 6.4 km/h 53 % 0.0 mm 700 W/m2
14:05 26.1 °C 17.7 °C 1024.3 hPa Calm   8.0 km/h 60 % 0.0 mm 663 W/m2
14:10 26.2 °C 15.9 °C 1024.3 hPa WNW 3.2 km/h 8.0 km/h 53 % 0.0 mm 708 W/m2
14:15 26.6 °C 16.5 °C 1023.9 hPa Calm   6.4 km/h 54 % 0.0 mm 664 W/m2
14:20 27.0 °C 16.3 °C 1023.9 hPa West 3.2 km/h 9.7 km/h 52 % 0.0 mm 645 W/m2
14:25 26.8 °C 17.0 °C 1023.9 hPa WNW 4.8 km/h 9.7 km/h 55 % 0.0 mm 610 W/m2
14:30 26.7 °C 15.4 °C 1023.9 hPa West 6.4 km/h 9.7 km/h 50 % 0.0 mm 1053 W/m2
14:35 27.3 °C 15.7 °C 1023.9 hPa WNW 6.4 km/h 9.7 km/h 49 % 0.0 mm 965 W/m2
14:40 27.9 °C 17.1 °C 1023.9 hPa WNW 9.7 km/h 12.9 km/h 52 % 0.0 mm 898 W/m2
14:45 27.5 °C 16.5 °C 1023.9 hPa West 3.2 km/h 12.9 km/h 51 % 0.0 mm 795 W/m2
14:50 27.3 °C 15.7 °C 1023.9 hPa WNW 6.4 km/h 11.3 km/h 49 % 0.0 mm 940 W/m2
14:55 26.9 °C 17.1 °C 1023.9 hPa NW 6.4 km/h 12.9 km/h 55 % 0.0 mm 817 W/m2
15:00 26.9 °C 15.6 °C 1023.9 hPa NW 6.4 km/h 12.9 km/h 50 % 0.0 mm 735 W/m2
15:05 26.8 °C 16.4 °C 1023.9 hPa WNW 3.2 km/h 11.3 km/h 53 % 0.0 mm 770 W/m2
15:10 26.9 °C 15.9 °C 1023.9 hPa WNW 1.6 km/h 12.9 km/h 51 % 0.0 mm 691 W/m2
15:15 27.2 °C 15.5 °C 1023.9 hPa West 4.8 km/h 12.9 km/h 49 % 0.0 mm 896 W/m2
15:20 27.4 °C 16.4 °C 1023.9 hPa SW 6.4 km/h 12.9 km/h 51 % 0.0 mm 872 W/m2
15:25 27.3 °C 15.4 °C 1023.9 hPa West 4.8 km/h 11.3 km/h 48 % 0.0 mm 877 W/m2
15:30 27.0 °C 15.7 °C 1023.9 hPa West 6.4 km/h 12.9 km/h 50 % 0.0 mm 853 W/m2
15:35 26.9 °C 17.1 °C 1023.9 hPa WSW 4.8 km/h 12.9 km/h 55 % 0.0 mm 926 W/m2
15:40 27.2 °C 15.8 °C 1023.9 hPa West 6.4 km/h 11.3 km/h 50 % 0.0 mm 956 W/m2
15:45 26.8 °C 15.5 °C 1023.9 hPa West 4.8 km/h 11.3 km/h 50 % 0.0 mm 499 W/m2
15:50 26.9 °C 16.8 °C 1023.9 hPa West 4.8 km/h 9.7 km/h 54 % 0.0 mm 909 W/m2
15:55 27.5 °C 16.5 °C 1023.6 hPa WSW 9.7 km/h 9.7 km/h 51 % 0.0 mm 726 W/m2
16:00 27.1 °C 16.4 °C 1023.6 hPa SW 4.8 km/h 11.3 km/h 52 % 0.0 mm 700 W/m2
16:05 26.8 °C 16.1 °C 1023.6 hPa WSW 6.4 km/h 11.3 km/h 52 % 0.0 mm 429 W/m2
16:10 26.5 °C 14.6 °C 1023.6 hPa WNW 8.0 km/h 12.9 km/h 48 % 0.0 mm 737 W/m2
16:20 27.0 °C 15.4 °C 1023.6 hPa West 9.7 km/h 14.5 km/h 49 % 0.0 mm 788 W/m2
16:25 26.9 °C 16.5 °C 1023.6 hPa West 8.0 km/h 14.5 km/h 53 % 0.0 mm 821 W/m2
16:30 26.9 °C 16.8 °C 1023.6 hPa WNW 9.7 km/h 14.5 km/h 54 % 0.0 mm 833 W/m2
16:35 26.7 °C 15.1 °C 1023.2 hPa WNW 6.4 km/h 12.9 km/h 49 % 0.0 mm 810 W/m2
16:40 26.4 °C 15.5 °C 1023.6 hPa West 6.4 km/h 14.5 km/h 51 % 0.0 mm 758 W/m2
16:45 26.3 °C 15.7 °C 1023.2 hPa West 4.8 km/h 14.5 km/h 52 % 0.0 mm 717 W/m2
16:50 26.3 °C 15.4 °C 1023.2 hPa WNW 6.4 km/h 12.9 km/h 51 % 0.0 mm 635 W/m2
16:55 26.7 °C 15.4 °C 1023.2 hPa NNW 8.0 km/h 12.9 km/h 50 % 0.0 mm 642 W/m2
17:00 26.4 °C 15.8 °C 1023.2 hPa WNW 9.7 km/h 12.9 km/h 52 % 0.0 mm 657 W/m2
17:05 25.9 °C 15.0 °C 1023.2 hPa West 4.8 km/h 12.9 km/h 51 % 0.0 mm 510 W/m2
17:10 25.9 °C 15.6 °C 1023.2 hPa WSW 4.8 km/h 11.3 km/h 53 % 0.0 mm 615 W/m2
17:15 26.1 °C 14.2 °C 1023.2 hPa West 12.9 km/h 12.9 km/h 48 % 0.0 mm 613 W/m2
17:20 25.9 °C 13.8 °C 1023.2 hPa WSW 4.8 km/h 12.9 km/h 47 % 0.0 mm 487 W/m2
17:25 25.9 °C 15.0 °C 1023.2 hPa WNW 4.8 km/h 12.9 km/h 51 % 0.0 mm 271 W/m2
17:30 25.6 °C 14.4 °C 1023.2 hPa West 3.2 km/h 8.0 km/h 50 % 0.0 mm 515 W/m2
17:35 25.5 °C 14.0 °C 1023.2 hPa WNW 6.4 km/h 9.7 km/h 49 % 0.0 mm 513 W/m2
17:40 25.7 °C 14.5 °C 1023.2 hPa SW 4.8 km/h 12.9 km/h 50 % 0.0 mm 601 W/m2
17:45 25.7 °C 13.6 °C 1022.9 hPa WSW 3.2 km/h 12.9 km/h 47 % 0.0 mm 399 W/m2
17:50 25.3 °C 13.2 °C 1022.9 hPa West 1.6 km/h 12.9 km/h 47 % 0.0 mm 436 W/m2
17:55 25.2 °C 13.7 °C 1022.9 hPa WNW 4.8 km/h 11.3 km/h 49 % 0.0 mm 318 W/m2
18:00 25.1 °C 14.6 °C 1022.9 hPa West 3.2 km/h 9.7 km/h 52 % 0.0 mm 359 W/m2
18:05 25.3 °C 14.4 °C 1022.9 hPa West 3.2 km/h 8.0 km/h 51 % 0.0 mm 450 W/m2
18:10 25.3 °C 13.8 °C 1022.9 hPa West 1.6 km/h 9.7 km/h 49 % 0.0 mm 313 W/m2
18:15 25.3 °C 14.7 °C 1022.9 hPa WSW 4.8 km/h 9.7 km/h 52 % 0.0 mm 313 W/m2
18:20 25.3 °C 14.1 °C 1022.9 hPa WSW 4.8 km/h 9.7 km/h 50 % 0.0 mm 346 W/m2
18:25 25.2 °C 13.4 °C 1022.6 hPa West 4.8 km/h 9.7 km/h 48 % 0.0 mm 234 W/m2
18:30 25.1 °C 14.2 °C 1022.6 hPa WSW 4.8 km/h 8.0 km/h 51 % 0.0 mm 417 W/m2
18:35 25.2 °C 13.7 °C 1022.6 hPa WSW 3.2 km/h 11.3 km/h 49 % 0.0 mm 454 W/m2
18:40 25.2 °C 13.7 °C 1022.6 hPa WSW 6.4 km/h 11.3 km/h 49 % 0.0 mm 294 W/m2
18:45 25.3 °C 14.1 °C 1022.6 hPa WSW 3.2 km/h 9.7 km/h 50 % 0.0 mm 366 W/m2
18:50 25.1 °C 13.3 °C 1022.6 hPa SW 1.6 km/h 9.7 km/h 48 % 0.0 mm 267 W/m2
18:55 24.8 °C 13.4 °C 1022.6 hPa West 1.6 km/h 9.7 km/h 49 % 0.0 mm 283 W/m2
19:00 24.7 °C 13.6 °C 1022.6 hPa Calm   8.0 km/h 50 % 0.0 mm 223 W/m2
19:05 24.6 °C 14.3 °C 1022.6 hPa WSW 4.8 km/h 8.0 km/h 53 % 0.0 mm 248 W/m2
19:10 24.6 °C 14.1 °C 1022.6 hPa WSW 6.4 km/h 8.0 km/h 52 % 0.0 mm 269 W/m2
19:15 24.6 °C 13.7 °C 1022.6 hPa West 8.0 km/h 8.0 km/h 51 % 0.0 mm 234 W/m2
19:20 24.4 °C 14.8 °C 1022.6 hPa West 3.2 km/h 8.0 km/h 55 % 0.0 mm 197 W/m2
19:25 24.2 °C 14.0 °C 1022.6 hPa WNW 8.0 km/h 9.7 km/h 53 % 0.0 mm 211 W/m2
19:30 24.2 °C 13.7 °C 1022.6 hPa WNW 4.8 km/h 9.7 km/h 52 % 0.0 mm 276 W/m2
19:35 24.3 °C 14.1 °C 1022.2 hPa WNW 8.0 km/h 9.7 km/h 53 % 0.0 mm 315 W/m2
19:40 24.7 °C 13.5 °C 1022.2 hPa WSW 1.6 km/h 9.7 km/h 50 % 0.0 mm 190 W/m2
19:45 24.6 °C 13.4 °C 1022.2 hPa West 3.2 km/h 8.0 km/h 50 % 0.0 mm 169 W/m2
19:50 24.3 °C 13.2 °C 1022.2 hPa West 3.2 km/h 8.0 km/h 50 % 0.0 mm 139 W/m2
19:55 23.9 °C 12.9 °C 1022.2 hPa Calm   8.0 km/h 50 % 0.0 mm 86 W/m2
20:05 23.1 °C 14.9 °C 1022.2 hPa West 6.4 km/h 6.4 km/h 60 % 0.0 mm 62 W/m2
20:15 22.7 °C 13.8 °C 1022.6 hPa Calm   9.7 km/h 57 % 0.0 mm 67 W/m2
20:20 22.5 °C 14.3 °C 1022.2 hPa WSW 6.4 km/h 9.7 km/h 60 % 0.0 mm 74 W/m2
20:25 22.2 °C 14.8 °C 1022.2 hPa WNW 6.4 km/h 11.3 km/h 63 % 0.0 mm 81 W/m2
20:30 22.2 °C 14.5 °C 1022.6 hPa West 8.0 km/h 12.9 km/h 62 % 0.0 mm 79 W/m2
20:35 22.2 °C 14.6 °C 1022.2 hPa WNW 1.6 km/h 12.9 km/h 62 % 0.0 mm 72 W/m2
20:40 22.2 °C 15.0 °C 1022.2 hPa West 3.2 km/h 14.5 km/h 64 % 0.0 mm 58 W/m2
20:45 22.0 °C 15.6 °C 1022.2 hPa WNW 6.4 km/h 14.5 km/h 67 % 0.0 mm 49 W/m2
20:50 21.7 °C 15.8 °C 1022.2 hPa Calm   8.0 km/h 69 % 0.0 mm 46 W/m2
20:55 21.6 °C 15.9 °C 1022.2 hPa Calm   6.4 km/h 70 % 0.0 mm 46 W/m2
21:00 21.5 °C 16.0 °C 1022.6 hPa Calm   1.6 km/h 71 % 0.0 mm 39 W/m2
21:05 21.4 °C 15.9 °C 1022.2 hPa West 1.6 km/h 6.4 km/h 71 % 0.0 mm 28 W/m2
21:10 21.3 °C 16.2 °C 1022.6 hPa West 1.6 km/h 6.4 km/h 73 % 0.0 mm 18 W/m2
21:15 21.1 °C 16.2 °C 1022.6 hPa Calm   3.2 km/h 74 % 0.0 mm 14 W/m2
21:20 20.8 °C 16.2 °C 1022.2 hPa Calm   3.2 km/h 75 % 0.0 mm 16 W/m2
21:25 20.6 °C 16.4 °C 1022.2 hPa Calm   3.2 km/h 77 % 0.0 mm 14 W/m2
21:30 20.3 °C 16.6 °C 1022.2 hPa West 3.2 km/h 4.8 km/h 79 % 0.0 mm 9 W/m2
21:35 20.2 °C 16.2 °C 1022.2 hPa Calm   4.8 km/h 78 % 0.0 mm 5 W/m2
21:40 20.0 °C 16.2 °C 1022.2 hPa West 1.6 km/h 4.8 km/h 79 % 0.0 mm 0 W/m2
21:45 19.8 °C 16.0 °C 1022.2 hPa NW 3.2 km/h 8.0 km/h 79 % 0.0 mm 0 W/m2
21:50 19.7 °C 16.2 °C 1022.2 hPa NW 4.8 km/h 9.7 km/h 80 % 0.0 mm 0 W/m2
21:55 19.6 °C 15.9 °C 1022.2 hPa NW 1.6 km/h 9.7 km/h 79 % 0.0 mm 0 W/m2
22:00 19.3 °C 15.5 °C 1022.2 hPa Calm   8.0 km/h 79 % 0.0 mm 0 W/m2
22:05 19.1 °C 15.6 °C 1022.2 hPa Calm   6.4 km/h 80 % 0.0 mm 0 W/m2
22:10 18.9 °C 15.4 °C 1022.2 hPa Calm   1.6 km/h 80 % 0.0 mm 0 W/m2
22:15 18.9 °C 15.4 °C 1022.2 hPa Calm     80 % 0.0 mm 0 W/m2
22:20 18.8 °C 15.3 °C 1022.6 hPa Calm     80 % 0.0 mm 0 W/m2
22:25 18.6 °C 15.5 °C 1022.6 hPa Calm     82 % 0.0 mm 0 W/m2
22:30 18.4 °C 15.3 °C 1022.6 hPa Calm     82 % 0.0 mm 0 W/m2
22:35 18.2 °C 15.5 °C 1022.6 hPa Calm   1.6 km/h 84 % 0.0 mm 0 W/m2
22:45 17.9 °C 15.1 °C 1022.6 hPa Calm   1.6 km/h 84 % 0.0 mm 0 W/m2
22:50 17.8 °C 15.2 °C 1022.2 hPa NW 1.6 km/h 3.2 km/h 85 % 0.0 mm 0 W/m2
22:55 17.6 °C 15.0 °C 1022.2 hPa NW 3.2 km/h 3.2 km/h 85 % 0.0 mm 0 W/m2
23:00 17.4 °C 15.1 °C 1022.2 hPa Calm   6.4 km/h 86 % 0.0 mm 0 W/m2
23:05 17.2 °C 14.7 °C 1022.2 hPa Calm   6.4 km/h 85 % 0.0 mm 0 W/m2
23:10 17.1 °C 14.6 °C 1022.2 hPa Calm   6.4 km/h 85 % 0.0 mm 0 W/m2
23:15 17.1 °C 14.2 °C 1022.2 hPa Calm     83 % 0.0 mm 0 W/m2
23:20 17.2 °C 14.3 °C 1022.2 hPa Calm   1.6 km/h 83 % 0.0 mm 0 W/m2
23:25 17.0 °C 14.3 °C 1022.2 hPa Calm   1.6 km/h 84 % 0.0 mm 0 W/m2
23:30 16.9 °C 14.2 °C 1022.2 hPa Calm   1.6 km/h 84 % 0.0 mm 0 W/m2
23:35 16.7 °C 14.0 °C 1022.2 hPa Calm     84 % 0.0 mm 0 W/m2
23:40 16.6 °C 14.1 °C 1022.2 hPa Calm     85 % 0.0 mm 0 W/m2
23:45 16.3 °C 14.0 °C 1022.2 hPa Calm     86 % 0.0 mm 0 W/m2
23:50 16.1 °C 13.9 °C 1022.2 hPa Calm     87 % 0.0 mm 0 W/m2
23:55 15.9 °C 13.9 °C 1022.2 hPa Calm     88 % 0.0 mm 0 W/m2
Avec l'autorisation de Weather Underground - 1.75 mb